Time;durP1;ratioP1;P1;durP2;ratioP2;P2;SDS_P1;SDS_P2;PMS_P1;PMS_P2;Temp;Humidity;BMP_temperature;BMP_pressure;BME280_temperature;BME280_humidity;BME280_pressure;Samples;Min_cycle;Max_cycle;Signal;HPM_P1;HPM_P2
2024/01/06 00:00:10;;;;;;;18.10;10.77;;;;;;;1.22;100.00;99952.34;5076137;28;20552;-67
2024/01/06 00:02:40;;;;;;;5.53;4.68;;;;;;;1.24;100.00;99961.03;5073587;28;20199;-67
2024/01/06 00:05:11;;;;;;;11.95;7.68;;;;;;;1.22;100.00;99955.00;5073558;28;20218;-67
2024/01/06 00:07:39;;;;;;;6.03;5.30;;;;;;;1.31;100.00;99956.69;5073482;28;20191;-66
2024/01/06 00:10:09;;;;;;;8.27;5.70;;;;;;;1.24;100.00;99958.34;5072287;28;20211;-68
2024/01/06 00:12:38;;;;;;;6.53;5.85;;;;;;;1.22;100.00;99957.66;5076496;28;20187;-66
2024/01/06 00:15:10;;;;;;;6.63;5.97;;;;;;;1.24;100.00;99962.84;5066984;28;20569;-68
2024/01/06 00:17:40;;;;;;;9.55;6.03;;;;;;;1.28;100.00;99966.84;5072155;28;20598;-68
2024/01/06 00:20:10;;;;;;;17.33;6.32;;;;;;;1.28;100.00;99967.69;5071992;28;20187;-67
2024/01/06 00:22:39;;;;;;;7.00;5.63;;;;;;;1.16;100.00;99973.50;5073249;28;20240;-67
2024/01/06 00:25:08;;;;;;;13.98;7.65;;;;;;;1.16;100.00;99974.31;5074929;28;20788;-66
2024/01/06 00:27:37;;;;;;;8.48;5.75;;;;;;;1.18;100.00;99975.00;5069144;28;20203;-67
2024/01/06 00:30:09;;;;;;;14.45;7.32;;;;;;;1.19;100.00;99971.34;5068401;28;20212;-68
2024/01/06 00:32:38;;;;;;;14.75;8.95;;;;;;;1.21;100.00;99972.00;5074186;28;20195;-68
2024/01/06 00:35:07;;;;;;;10.73;9.63;;;;;;;1.23;100.00;99969.16;5069412;28;20215;-66
2024/01/06 00:37:36;;;;;;;4.22;3.92;;;;;;;1.22;100.00;99968.34;5068917;28;20225;-66
2024/01/06 00:40:06;;;;;;;11.48;6.97;;;;;;;1.15;100.00;99963.84;5069762;28;20184;-67
2024/01/06 00:42:35;;;;;;;10.40;9.45;;;;;;;1.13;100.00;99974.66;5079773;28;20196;-67
2024/01/06 00:45:05;;;;;;;10.93;8.30;;;;;;;1.12;100.00;99983.63;5073833;28;20250;-66
2024/01/06 00:47:35;;;;;;;9.10;7.40;;;;;;;1.10;100.00;99977.66;5069975;28;20192;-67
2024/01/06 00:50:05;;;;;;;9.82;8.82;;;;;;;1.12;100.00;99983.63;5072305;28;20220;-67
2024/01/06 00:52:34;;;;;;;10.90;9.25;;;;;;;1.16;100.00;99987.63;5066084;28;20204;-67
2024/01/06 00:55:03;;;;;;;2.28;1.63;;;;;;;1.14;100.00;99975.50;5073919;28;20218;-66
2024/01/06 00:57:32;;;;;;;7.75;6.93;;;;;;;1.07;100.00;99975.28;5072626;28;20715;-66
2024/01/06 01:00:02;;;;;;;10.85;6.85;;;;;;;1.14;100.00;99976.31;5067976;28;20249;-68
2024/01/06 01:02:31;;;;;;;6.47;4.82;;;;;;;1.06;100.00;99975.47;5072672;28;20370;-65
2024/01/06 01:05:03;;;;;;;8.13;7.32;;;;;;;1.03;100.00;99979.28;5072523;28;20641;-67
2024/01/06 01:07:32;;;;;;;4.75;4.43;;;;;;;1.01;100.00;99981.31;5069487;28;20192;-66
2024/01/06 01:10:01;;;;;;;10.77;8.63;;;;;;;1.04;100.00;99988.97;5059782;28;20671;-67
2024/01/06 01:12:30;;;;;;;9.50;7.25;;;;;;;1.03;100.00;99999.78;5074792;28;20218;-67
2024/01/06 01:14:59;;;;;;;11.18;7.03;;;;;;;1.09;100.00;99997.28;5070312;28;20198;-66
2024/01/06 01:17:28;;;;;;;7.90;4.88;;;;;;;1.03;100.00;100010.41;5065167;28;20242;-67
2024/01/06 01:19:57;;;;;;;10.27;5.80;;;;;;;1.02;100.00;100020.25;5067764;28;20230;-66
2024/01/06 01:22:27;;;;;;;17.33;6.78;;;;;;;1.00;100.00;100014.25;5070435;28;20246;-67
2024/01/06 01:24:56;;;;;;;7.85;7.22;;;;;;;1.03;100.00;100021.91;5070871;28;20271;-65
2024/01/06 01:27:25;;;;;;;10.32;5.85;;;;;;;1.00;100.00;100022.25;5070904;28;20914;-67
2024/01/06 01:29:54;;;;;;;19.77;5.47;;;;;;;1.05;100.00;100013.78;5076339;28;20241;-67
2024/01/06 01:32:23;;;;;;;11.93;10.68;;;;;;;1.06;100.00;100018.09;5075553;28;20204;-66
2024/01/06 01:34:53;;;;;;;15.50;8.95;;;;;;;1.08;100.00;100019.59;5083694;28;20188;-67
2024/01/06 01:37:22;;;;;;;9.05;6.78;;;;;;;1.01;100.00;100013.28;5067868;28;20189;-67
2024/01/06 01:39:52;;;;;;;7.50;6.95;;;;;;;0.96;100.00;100010.25;5067917;28;20192;-67
2024/01/06 01:42:21;;;;;;;10.32;7.57;;;;;;;1.00;100.00;100016.94;5071976;28;20176;-67
2024/01/06 01:44:50;;;;;;;9.98;9.00;;;;;;;1.02;100.00;100014.91;5067458;28;20196;-67
2024/01/06 01:47:19;;;;;;;9.27;5.82;;;;;;;1.02;100.00;100022.91;5068861;28;20200;-67
2024/01/06 01:49:48;;;;;;;9.85;6.38;;;;;;;0.91;100.00;100009.91;5074449;28;20192;-66
2024/01/06 01:52:17;;;;;;;9.63;5.28;;;;;;;0.93;100.00;100013.22;5057554;28;20228;-67
2024/01/06 01:54:47;;;;;;;5.30;4.30;;;;;;;0.94;100.00;100017.56;5064734;28;20193;-66
2024/01/06 01:57:18;;;;;;;11.57;10.50;;;;;;;0.94;100.00;100024.72;5071333;28;20246;-66
2024/01/06 01:59:48;;;;;;;9.65;8.02;;;;;;;0.97;100.00;100029.75;5068299;28;20221;-67
2024/01/06 02:02:18;;;;;;;8.75;5.72;;;;;;;0.90;100.00;100021.56;5072068;28;20855;-67
2024/01/06 02:04:48;;;;;;;10.27;7.90;;;;;;;1.00;100.00;100027.59;5076622;28;20192;-67
2024/01/06 02:07:17;;;;;;;10.45;7.07;;;;;;;0.96;100.00;100031.56;5075923;28;20207;-67
2024/01/06 02:09:46;;;;;;;6.57;4.78;;;;;;;1.01;100.00;100028.41;5074497;28;20192;-67
2024/01/06 02:12:17;;;;;;;6.68;6.15;;;;;;;1.00;100.00;100030.25;5068158;28;20203;-66
2024/01/06 02:14:46;;;;;;;6.32;5.72;;;;;;;1.01;100.00;100034.59;5075314;28;20266;-66
2024/01/06 02:17:15;;;;;;;4.82;4.43;;;;;;;1.02;100.00;100041.56;5064904;28;20280;-66
2024/01/06 02:19:44;;;;;;;8.00;4.88;;;;;;;0.96;100.00;100036.91;5073533;28;20184;-66
2024/01/06 02:22:14;;;;;;;6.07;5.57;;;;;;;0.94;100.00;100030.88;5065458;28;20184;-67
2024/01/06 02:24:47;;;;;;;13.45;7.20;;;;;;;1.00;100.00;100040.91;5073853;28;20196;-66
2024/01/06 02:27:16;;;;;;;12.05;6.55;;;;;;;1.00;100.00;100024.91;5071175;28;20278;-67
2024/01/06 02:29:45;;;;;;;6.68;6.15;;;;;;;0.98;100.00;100036.72;5071924;28;20274;-67
2024/01/06 02:32:14;;;;;;;5.63;5.13;;;;;;;1.09;100.00;100039.09;5071550;28;20203;-67
2024/01/06 02:34:43;;;;;;;7.72;7.07;;;;;;;0.92;100.00;100040.84;5067187;28;20201;-67
2024/01/06 02:37:14;;;;;;;6.72;4.53;;;;;;;0.96;100.00;100044.06;5071072;28;20617;-67
2024/01/06 02:39:43;;;;;;;6.65;6.05;;;;;;;0.92;100.00;100040.03;5076989;28;20192;-67
2024/01/06 02:42:12;;;;;;;4.00;3.45;;;;;;;0.91;100.00;100047.19;5069062;28;20181;-67
2024/01/06 02:44:40;;;;;;;10.57;7.30;;;;;;;1.03;100.00;100048.56;5065129;28;20688;-67
2024/01/06 02:47:09;;;;;;;9.25;6.25;;;;;;;1.09;100.00;100052.41;5068801;28;20205;-66
2024/01/06 02:49:38;;;;;;;7.30;5.93;;;;;;;1.01;100.00;100055.91;5074024;28;20243;-66
2024/01/06 02:52:07;;;;;;;4.80;4.40;;;;;;;0.98;100.00;100058.03;5069118;28;20206;-66
2024/01/06 02:54:51;;;;;;;5.30;4.82;;;;;;;0.97;100.00;100062.50;5073140;28;20219;-66
2024/01/06 02:57:20;;;;;;;7.93;5.93;;;;;;;0.92;100.00;100051.50;5077595;28;20238;-68
2024/01/06 02:59:48;;;;;;;10.00;8.40;;;;;;;1.02;100.00;100057.53;5071129;28;20192;-67
2024/01/06 03:02:17;;;;;;;21.92;9.18;;;;;;;0.99;100.00;100059.69;5056884;28;20193;-67
2024/01/06 03:04:46;;;;;;;2.65;2.45;;;;;;;0.96;100.00;100058.22;5068867;28;20204;-67
2024/01/06 03:07:15;;;;;;;7.95;7.05;;;;;;;0.98;100.00;100066.00;5071219;28;20203;-67
2024/01/06 03:09:44;;;;;;;10.13;6.15;;;;;;;1.01;100.00;100063.88;5080102;28;20222;-67
2024/01/06 03:12:15;;;;;;;9.00;4.80;;;;;;;0.93;100.00;100058.50;5079503;28;20200;-66
2024/01/06 03:14:44;;;;;;;9.13;6.63;;;;;;;0.96;100.00;100068.03;5075270;28;20246;-67
2024/01/06 03:17:13;;;;;;;5.38;4.90;;;;;;;0.93;100.00;100063.84;5072779;28;20609;-69
2024/01/06 03:19:42;;;;;;;9.40;7.30;;;;;;;0.91;100.00;100073.84;5073756;28;20187;-66
2024/01/06 03:22:11;;;;;;;9.27;6.55;;;;;;;0.98;100.00;100066.84;5083044;28;20670;-67
2024/01/06 03:24:41;;;;;;;8.65;7.18;;;;;;;1.00;100.00;100067.53;5073297;28;20216;-68
2024/01/06 03:27:10;;;;;;;7.10;6.60;;;;;;;0.95;100.00;100067.19;5080973;28;20194;-66
2024/01/06 03:29:41;;;;;;;5.35;4.20;;;;;;;0.90;100.00;100064.16;5076677;28;20198;-70
2024/01/06 03:32:10;;;;;;;4.38;3.67;;;;;;;0.95;100.00;100069.84;5073592;28;20267;-66
2024/01/06 03:34:39;;;;;;;13.88;4.53;;;;;;;0.91;100.00;100076.50;5069978;28;20192;-66
2024/01/06 03:37:08;;;;;;;3.45;3.15;;;;;;;0.89;100.00;100078.47;5067799;28;20222;-67
2024/01/06 03:39:37;;;;;;;3.78;3.00;;;;;;;0.79;100.00;100091.06;5071681;28;20189;-67
2024/01/06 03:42:07;;;;;;;6.25;4.72;;;;;;;0.80;100.00;100087.44;5071087;28;20187;-66
2024/01/06 03:44:36;;;;;;;9.18;7.28;;;;;;;0.83;100.00;100089.75;5065985;28;20207;-66
2024/01/06 03:47:06;;;;;;;8.00;5.88;;;;;;;0.88;100.00;100095.44;5075613;28;20215;-67
2024/01/06 03:49:35;;;;;;;7.57;6.97;;;;;;;0.84;100.00;100091.44;5072425;28;20566;-67
2024/01/06 03:52:05;;;;;;;8.85;6.63;;;;;;;0.89;100.00;100089.13;5076363;28;20216;-66
2024/01/06 03:54:34;;;;;;;11.05;5.75;;;;;;;0.87;100.00;100096.47;5072126;28;20218;-66
2024/01/06 03:57:03;;;;;;;5.13;4.63;;;;;;;0.92;100.00;100083.47;5071529;28;20207;-67
2024/01/06 03:59:32;;;;;;;7.68;7.15;;;;;;;1.00;100.00;100098.69;5067723;28;20188;-66
2024/01/06 04:02:01;;;;;;;4.05;3.65;;;;;;;0.88;100.00;100096.28;5068803;28;20192;-66
2024/01/06 04:04:31;;;;;;;3.30;2.63;;;;;;;0.97;100.00;100097.16;5067053;28;20241;-67
2024/01/06 04:07:01;;;;;;;6.75;6.13;;;;;;;1.00;100.00;100099.50;5064629;28;20307;-67
2024/01/06 04:09:30;;;;;;;11.27;8.57;;;;;;;1.00;100.00;100107.50;5074749;28;20328;-68
2024/01/06 04:12:00;;;;;;;6.15;4.47;;;;;;;1.04;100.00;100111.50;5073612;28;20573;-67
2024/01/06 04:14:30;;;;;;;6.47;5.78;;;;;;;1.00;100.00;100104.84;5065925;28;20671;-67
2024/01/06 04:16:59;;;;;;;6.85;6.20;;;;;;;0.90;100.00;100112.13;5076611;28;20207;-67
2024/01/06 04:19:28;;;;;;;6.55;6.03;;;;;;;0.88;100.00;100108.75;5063997;28;20192;-67
2024/01/06 04:21:58;;;;;;;9.73;9.05;;;;;;;0.86;100.00;100105.44;5061639;28;20276;-67
2024/01/06 04:24:27;;;;;;;8.25;4.53;;;;;;;0.89;100.00;100115.78;5065945;28;20186;-66
2024/01/06 04:26:56;;;;;;;8.27;7.68;;;;;;;0.81;100.00;100123.72;5067172;28;20215;-67
2024/01/06 04:29:25;;;;;;;9.88;8.98;;;;;;;0.83;100.00;100125.22;5070204;28;20191;-67
2024/01/06 04:31:54;;;;;;;7.30;6.63;;;;;;;0.85;100.00;100136.56;5072872;28;20188;-67
2024/01/06 04:34:23;;;;;;;16.40;6.78;;;;;;;0.88;100.00;100135.41;5074722;28;20306;-67
2024/01/06 04:36:52;;;;;;;5.65;5.20;;;;;;;0.86;100.00;100137.41;5071876;28;20577;-65
2024/01/06 04:39:22;;;;;;;7.72;7.03;;;;;;;0.85;100.00;100135.72;5071729;28;20188;-67
2024/01/06 04:41:51;;;;;;;7.35;5.43;;;;;;;0.91;100.00;100140.44;5064244;28;20214;-67
2024/01/06 04:44:22;;;;;;;9.95;5.00;;;;;;;0.92;100.00;100136.75;5076126;28;20235;-66
2024/01/06 04:46:51;;;;;;;4.80;4.40;;;;;;;0.88;100.00;100140.72;5069710;28;20233;-65
2024/01/06 04:49:20;;;;;;;6.15;5.47;;;;;;;0.87;100.00;100144.41;5073514;28;20188;-66
2024/01/06 04:51:49;;;;;;;11.70;6.60;;;;;;;0.82;100.00;100141.38;5068726;28;20181;-66
2024/01/06 04:54:20;;;;;;;12.75;7.35;;;;;;;0.87;100.00;100144.41;5063262;28;20231;-66
2024/01/06 04:56:49;;;;;;;6.07;5.45;;;;;;;0.95;100.00;100152.44;5066621;28;20280;-66
2024/01/06 04:59:18;;;;;;;6.72;6.00;;;;;;;0.92;100.00;100157.25;5062088;28;20428;-66
2024/01/06 05:01:47;;;;;;;7.30;4.95;;;;;;;0.94;100.00;100148.09;5079866;28;20658;-68
2024/01/06 05:04:16;;;;;;;13.07;5.10;;;;;;;0.95;100.00;100157.75;5072612;28;20211;-66
2024/01/06 05:06:45;;;;;;;5.05;3.08;;;;;;;0.92;100.00;100157.25;5075159;28;20215;-67
2024/01/06 05:09:14;;;;;;;7.13;6.47;;;;;;;0.89;100.00;100155.72;5061406;28;20214;-67
2024/01/06 05:11:46;;;;;;;5.45;5.07;;;;;;;0.88;100.00;100157.53;5077250;28;20187;-67
2024/01/06 05:14:15;;;;;;;7.60;4.85;;;;;;;0.82;100.00;100155.50;5071047;28;20211;-67
2024/01/06 05:16:44;;;;;;;14.85;6.40;;;;;;;0.82;100.00;100157.38;5072651;28;20269;-67
2024/01/06 05:19:19;;;;;;;10.20;6.10;;;;;;;0.73;100.00;100160.94;5068979;28;20662;-65
2024/01/06 05:21:49;;;;;;;8.30;7.45;;;;;;;0.77;100.00;100165.00;5064952;28;20719;-67
2024/01/06 05:24:19;;;;;;;8.63;6.93;;;;;;;0.72;100.00;100172.59;5061057;28;20670;-65
2024/01/06 05:26:49;;;;;;;15.68;6.30;;;;;;;0.77;100.00;100175.63;5070648;28;20212;-66
2024/01/06 05:29:18;;;;;;;6.75;6.13;;;;;;;0.70;100.00;100171.91;5066928;28;20204;-65
2024/01/06 05:31:48;;;;;;;9.35;5.65;;;;;;;0.60;100.00;100173.84;5064931;28;20765;-66
2024/01/06 05:34:18;;;;;;;9.57;7.25;;;;;;;0.60;100.00;100176.50;5068157;28;20254;-66
2024/01/06 05:36:47;;;;;;;7.93;7.10;;;;;;;0.58;100.00;100181.16;5063071;28;20295;-66
2024/01/06 05:39:15;;;;;;;6.47;5.90;;;;;;;0.55;100.00;100176.13;5081390;28;20196;-67
2024/01/06 05:41:44;;;;;;;13.35;7.03;;;;;;;0.51;100.00;100183.59;5072096;28;20531;-68
2024/01/06 05:44:15;;;;;;;7.07;4.47;;;;;;;0.44;100.00;100180.72;5081663;28;20191;-67
2024/01/06 05:46:44;;;;;;;7.35;6.10;;;;;;;0.43;100.00;100186.22;5077532;28;20298;-68
2024/01/06 05:49:13;;;;;;;5.05;4.72;;;;;;;0.47;100.00;100200.03;5077660;28;20199;-67
2024/01/06 05:51:46;;;;;;;6.10;4.97;;;;;;;0.51;100.00;100185.44;5072036;28;20188;-66
2024/01/06 05:54:15;;;;;;;7.18;5.05;;;;;;;0.44;100.00;100196.69;5065491;28;20564;-66
2024/01/06 05:56:44;;;;;;;5.50;5.10;;;;;;;0.42;100.00;100198.69;5076886;28;20632;-67
2024/01/06 05:59:15;;;;;;;4.45;3.88;;;;;;;0.45;100.00;100208.16;5067846;28;20203;-67
2024/01/06 06:01:44;;;;;;;11.80;3.90;;;;;;;0.47;100.00;100211.53;5074905;28;20199;-67
2024/01/06 06:04:13;;;;;;;16.25;7.75;;;;;;;0.51;100.00;100206.72;5079420;28;20184;-67
2024/01/06 06:06:42;;;;;;;4.32;3.88;;;;;;;0.43;100.00;100213.66;5077453;28;20203;-66
2024/01/06 06:09:11;;;;;;;5.00;4.60;;;;;;;0.36;100.00;100220.59;5082177;28;20253;-67
2024/01/06 06:11:40;;;;;;;15.50;9.00;;;;;;;0.39;100.00;100224.75;5073733;28;20408;-67
2024/01/06 06:14:09;;;;;;;8.23;5.22;;;;;;;0.36;100.00;100227.72;5075597;28;20216;-66
2024/01/06 06:16:39;;;;;;;14.18;5.03;;;;;;;0.31;100.00;100233.50;5075145;28;20726;-67
2024/01/06 06:19:08;;;;;;;7.22;6.57;;;;;;;0.39;100.00;100246.03;5064000;28;20197;-67
2024/01/06 06:21:37;;;;;;;6.35;5.65;;;;;;;0.48;100.00;100249.63;5081135;28;20210;-66
2024/01/06 06:24:07;;;;;;;7.05;6.28;;;;;;;0.43;100.00;100258.91;5068236;28;20188;-65
2024/01/06 06:26:36;;;;;;;13.50;9.35;;;;;;;0.46;100.00;100270.22;5081222;28;20207;-65
2024/01/06 06:29:09;;;;;;;11.63;8.40;;;;;;;0.48;100.00;100268.28;5074212;28;20295;-66
2024/01/06 06:31:39;;;;;;;14.07;3.08;;;;;;;0.43;100.00;100269.56;5075504;28;20218;-67
2024/01/06 06:34:09;;;;;;;7.38;6.20;;;;;;;0.41;100.00;100266.22;5074986;28;20204;-66
2024/01/06 06:36:38;;;;;;;4.82;2.08;;;;;;;0.33;100.00;100274.13;5066629;28;20204;-67
2024/01/06 06:39:07;;;;;;;6.32;4.57;;;;;;;0.34;100.00;100267.78;5075204;28;20184;-69
2024/01/06 06:41:36;;;;;;;14.52;5.45;;;;;;;0.37;100.00;100280.81;5073918;28;20254;-68
2024/01/06 06:44:05;;;;;;;8.88;8.27;;;;;;;0.40;100.00;100280.50;5073997;28;20249;-67
2024/01/06 06:46:34;;;;;;;10.43;5.15;;;;;;;0.20;100.00;100280.78;5067044;28;20213;-67
2024/01/06 06:49:04;;;;;;;6.28;5.88;;;;;;;0.14;100.00;100284.06;5073292;28;20203;-68
2024/01/06 06:51:34;;;;;;;8.38;5.63;;;;;;;0.14;100.00;100290.22;5073660;28;20731;-67
2024/01/06 06:54:02;;;;;;;6.57;5.88;;;;;;;0.29;100.00;100303.84;5076692;28;20381;-68
2024/01/06 06:56:31;;;;;;;5.93;5.50;;;;;;;0.27;100.00;100308.47;5077158;28;20307;-65
2024/01/06 06:59:01;;;;;;;8.48;5.55;;;;;;;0.21;100.00;100323.22;5067081;28;20195;-67
2024/01/06 07:01:30;;;;;;;16.10;5.15;;;;;;;0.21;100.00;100323.22;5063716;28;20384;-66
2024/01/06 07:04:03;;;;;;;5.00;4.22;;;;;;;0.13;100.00;100331.13;5071171;28;20231;-67
2024/01/06 07:06:32;;;;;;;7.18;5.32;;;;;;;0.14;100.00;100324.81;5074139;28;20306;-66
2024/01/06 07:09:01;;;;;;;4.30;3.25;;;;;;;0.17;100.00;100331.66;5074497;28;20230;-67
2024/01/06 07:11:30;;;;;;;15.20;9.70;;;;;;;0.12;100.00;100329.44;5066839;28;20254;-67
2024/01/06 07:13:59;;;;;;;6.63;6.13;;;;;;;0.12;100.00;100341.91;5071232;28;20200;-66
2024/01/06 07:16:28;;;;;;;4.50;2.33;;;;;;;0.13;100.00;100347.09;5073799;28;20216;-65
2024/01/06 07:18:57;;;;;;;5.75;4.43;;;;;;;0.09;100.00;100340.38;5066721;28;20198;-66
2024/01/06 07:21:27;;;;;;;14.40;6.28;;;;;;;0.06;100.00;100347.81;5065634;28;20188;-67
2024/01/06 07:23:56;;;;;;;2.15;2.03;;;;;;;0.09;100.00;100344.88;5070531;28;20267;-68
2024/01/06 07:26:25;;;;;;;3.65;3.38;;;;;;;0.05;100.00;100349.63;5070067;28;20329;-67
2024/01/06 07:29:05;;;;;;;8.32;5.38;;;;;;;0.05;100.00;100354.94;5081690;28;20208;-67
2024/01/06 07:31:34;;;;;;;5.00;4.55;;;;;;;-0.01;100.00;100356.41;5075012;28;20187;-68
2024/01/06 07:34:03;;;;;;;6.40;5.82;;;;;;;0.01;100.00;100353.56;5069228;28;20234;-68
2024/01/06 07:36:34;;;;;;;9.60;7.38;;;;;;;0.08;100.00;100365.31;5073195;28;20721;-65
2024/01/06 07:39:05;;;;;;;3.25;2.95;;;;;;;0.03;100.00;100378.22;5073917;28;20281;-67
2024/01/06 07:41:34;;;;;;;7.88;7.25;;;;;;;0.09;100.00;100361.66;5070497;28;20192;-66
2024/01/06 07:44:03;;;;;;;15.98;8.10;;;;;;;0.08;100.00;100362.66;5073604;28;20216;-67
2024/01/06 07:46:32;;;;;;;12.52;11.63;;;;;;;0.14;100.00;100378.03;5072064;28;20220;-65
2024/01/06 07:49:01;;;;;;;12.77;6.95;;;;;;;0.09;100.00;100366.16;5068848;28;20199;-67
2024/01/06 07:51:30;;;;;;;14.10;9.38;;;;;;;0.11;100.00;100372.97;5056834;28;20197;-65
2024/01/06 07:54:01;;;;;;;3.78;3.58;;;;;;;0.11;100.00;100385.44;5068675;28;20189;-67
2024/01/06 07:56:30;;;;;;;9.68;5.45;;;;;;;0.08;100.00;100381.28;5059138;28;20212;-67
2024/01/06 07:58:59;;;;;;;12.60;9.43;;;;;;;0.04;100.00;100395.84;5058991;28;20224;-68
2024/01/06 08:01:28;;;;;;;7.03;6.05;;;;;;;-0.02;100.00;100396.44;5066207;28;20685;-67
2024/01/06 08:03:57;;;;;;;10.38;5.60;;;;;;;0.01;100.00;100401.44;5067482;28;20214;-67
2024/01/06 08:06:26;;;;;;;3.92;3.53;;;;;;;-0.03;100.00;100400.91;5073014;28;20239;-67
2024/01/06 08:08:55;;;;;;;4.00;3.42;;;;;;;0.02;100.00;100402.28;5072096;28;20601;-68
2024/01/06 08:11:26;;;;;;;12.50;9.40;;;;;;;0.00;100.00;100415.75;5073622;28;20255;-68
2024/01/06 08:13:55;;;;;;;7.97;6.93;;;;;;;0.07;100.00;100431.94;5065447;28;20203;-67
2024/01/06 08:16:24;;;;;;;8.57;6.82;;;;;;;0.06;100.00;100425.78;5072756;28;20718;-67
2024/01/06 08:18:53;;;;;;;10.10;5.88;;;;;;;0.05;100.00;100432.09;5071063;28;20199;-67
2024/01/06 08:21:24;;;;;;;13.48;8.77;;;;;;;0.17;100.00;100432.75;5072827;28;20275;-65
2024/01/06 08:23:53;;;;;;;24.88;4.50;;;;;;;0.11;100.00;100422.69;5066277;28;20666;-67
2024/01/06 08:26:22;;;;;;;17.25;5.30;;;;;;;0.11;100.00;100434.19;5072681;28;20281;-66
2024/01/06 08:28:53;;;;;;;9.00;6.93;;;;;;;0.00;100.00;100443.16;5063778;28;20669;-67
2024/01/06 08:31:22;;;;;;;6.18;3.33;;;;;;;-0.05;100.00;100450.75;5071728;28;20204;-67
2024/01/06 08:33:52;;;;;;;9.48;8.60;;;;;;;-0.06;100.00;100445.59;5063420;28;20662;-67
2024/01/06 08:36:21;;;;;;;11.25;9.88;;;;;;;0.04;100.00;100443.75;5068027;28;20223;-67
2024/01/06 08:38:50;;;;;;;7.90;6.03;;;;;;;-0.01;100.00;100443.34;5069982;28;20188;-67
2024/01/06 08:41:19;;;;;;;9.45;8.70;;;;;;;0.04;100.00;100457.03;5071016;28;20214;-67
2024/01/06 08:43:48;;;;;;;9.13;8.00;;;;;;;0.06;100.00;100457.72;5056288;28;20193;-67
2024/01/06 08:46:19;;;;;;;11.70;6.45;;;;;;;-0.04;100.00;100467.53;5064540;28;20226;-67
2024/01/06 08:48:48;;;;;;;4.25;3.78;;;;;;;-0.07;100.00;100473.16;5064569;28;20245;-65
2024/01/06 08:51:17;;;;;;;9.73;4.35;;;;;;;-0.08;100.00;100472.31;5060564;28;20196;-66
2024/01/06 08:53:46;;;;;;;14.40;8.00;;;;;;;-0.10;100.00;100470.81;5066666;28;20222;-67
2024/01/06 08:56:16;;;;;;;12.52;5.82;;;;;;;-0.15;100.00;100481.03;5064107;28;20227;-66
2024/01/06 08:58:45;;;;;;;31.30;6.93;;;;;;;-0.16;100.00;100479.34;5061682;28;20206;-66
2024/01/06 09:01:14;;;;;;;12.35;7.00;;;;;;;-0.13;100.00;100495.84;5061964;28;20664;-67
2024/01/06 09:03:44;;;;;;;5.53;5.13;;;;;;;-0.21;100.00;100494.91;5069517;28;20245;-67
2024/01/06 09:06:13;;;;;;;3.10;2.90;;;;;;;-0.25;100.00;100507.66;5072932;28;20259;-67
2024/01/06 09:08:43;;;;;;;11.13;6.60;;;;;;;-0.24;100.00;100505.84;5071164;28;20257;-67
2024/01/06 09:11:16;;;;;;;5.85;5.35;;;;;;;-0.22;100.00;100509.16;5061933;28;20238;-67
2024/01/06 09:13:45;;;;;;;7.40;5.18;;;;;;;-0.24;100.00;100505.84;5061524;28;20193;-67
2024/01/06 09:16:14;;;;;;;4.03;3.67;;;;;;;-0.19;100.00;100514.19;5068276;28;20242;-67
2024/01/06 09:18:45;;;;;;;4.93;3.90;;;;;;;-0.17;100.00;100520.22;5072888;28;20612;-68
2024/01/06 09:21:14;;;;;;;10.02;8.88;;;;;;;-0.13;100.00;100514.47;5072383;28;20745;-66
2024/01/06 09:23:45;;;;;;;8.70;6.65;;;;;;;-0.10;100.00;100530.13;5063021;28;20554;-67
2024/01/06 09:26:16;;;;;;;14.18;12.77;;;;;;;-0.06;100.00;100526.22;5058909;28;20208;-66
2024/01/06 09:28:45;;;;;;;5.07;4.57;;;;;;;-0.05;100.00;100529.72;5071349;28;20200;-67
2024/01/06 09:31:14;;;;;;;19.85;9.88;;;;;;;-0.04;100.00;100539.38;5063837;28;20184;-66
2024/01/06 09:33:45;;;;;;;5.07;4.57;;;;;;;-0.14;100.00;100541.19;5077255;28;20188;-67
2024/01/06 09:36:14;;;;;;;4.47;4.07;;;;;;;-0.15;100.00;100536.88;5065674;28;20223;-68
2024/01/06 09:38:43;;;;;;;4.90;4.60;;;;;;;-0.15;100.00;100542.22;5070713;28;20658;-67
2024/01/06 09:41:12;;;;;;;9.73;8.73;;;;;;;-0.25;100.00;100541.38;5063033;28;20238;-66
2024/01/06 09:43:41;;;;;;;8.10;7.28;;;;;;;-0.20;100.00;100547.09;5072514;28;20187;-67
2024/01/06 09:46:25;;;;;;;8.50;7.50;;;;;;;-0.19;100.00;100554.06;5072334;28;20561;-67
2024/01/06 09:48:56;;;;;;;7.75;4.75;;;;;;;-0.14;100.00;100551.84;5072589;28;20245;-67
2024/01/06 09:51:26;;;;;;;7.25;6.68;;;;;;;-0.17;100.00;100547.66;5073887;28;20202;-66
2024/01/06 09:53:59;;;;;;;4.35;3.15;;;;;;;-0.19;100.00;100554.06;5065586;28;20188;-68
2024/01/06 09:56:30;;;;;;;3.83;3.47;;;;;;;-0.21;100.00;100551.59;5075275;28;20254;-66
2024/01/06 09:58:59;;;;;;;10.73;9.50;;;;;;;-0.13;100.00;100558.84;5072763;28;20292;-67
2024/01/06 10:01:28;;;;;;;5.30;4.43;;;;;;;-0.02;100.00;100556.88;5062226;28;20671;-66
2024/01/06 10:03:59;;;;;;;8.57;6.35;;;;;;;-0.04;100.00;100573.94;5069654;28;20191;-67
2024/01/06 10:06:28;;;;;;;5.13;3.97;;;;;;;-0.09;100.00;100566.41;5065386;28;20212;-68
2024/01/06 10:08:56;;;;;;;9.15;6.32;;;;;;;-0.01;100.00;100568.38;5072410;28;20192;-68
2024/01/06 10:11:26;;;;;;;13.35;9.20;;;;;;;-0.11;100.00;100572.84;5070663;28;20215;-67
2024/01/06 10:13:55;;;;;;;8.90;6.65;;;;;;;-0.18;100.00;100582.34;5072065;28;20245;-67
2024/01/06 10:16:24;;;;;;;8.57;5.75;;;;;;;-0.05;100.00;100588.25;5069975;28;20211;-66
2024/01/06 10:18:55;;;;;;;7.40;5.78;;;;;;;-0.06;100.00;100591.88;5072199;28;20195;-68
2024/01/06 10:21:26;;;;;;;9.85;5.60;;;;;;;-0.07;100.00;100595.53;5061035;28;20196;-67
2024/01/06 10:23:55;;;;;;;11.20;5.90;;;;;;;-0.07;100.00;100584.88;5064052;28;20199;-66
2024/01/06 10:26:24;;;;;;;2.33;2.22;;;;;;;-0.14;100.00;100594.38;5070953;28;20200;-67
2024/01/06 10:28:53;;;;;;;4.90;4.60;;;;;;;-0.14;100.00;100584.59;5066888;28;20184;-67
2024/01/06 10:31:22;;;;;;;7.82;6.35;;;;;;;-0.16;100.00;100578.59;5074854;28;20204;-67
2024/01/06 10:33:52;;;;;;;7.05;6.60;;;;;;;-0.13;100.00;100585.44;5068303;28;20724;-67
2024/01/06 10:36:23;;;;;;;4.82;3.53;;;;;;;-0.04;100.00;100576.59;5075844;28;20200;-67
2024/01/06 10:38:55;;;;;;;5.05;4.60;;;;;;;-0.15;100.00;100579.44;5073755;28;20195;-67
2024/01/06 10:41:25;;;;;;;7.75;7.30;;;;;;;-0.11;100.00;100579.00;5075256;28;20251;-66
2024/01/06 10:43:55;;;;;;;4.50;3.08;;;;;;;-0.09;100.00;100593.00;5069087;28;20188;-65
2024/01/06 10:46:26;;;;;;;4.85;4.53;;;;;;;-0.13;100.00;100588.94;5072511;28;20767;-66
2024/01/06 10:48:58;;;;;;;2.75;2.63;;;;;;;-0.14;100.00;100586.41;5069328;28;20390;-66
2024/01/06 10:51:30;;;;;;;3.55;3.35;;;;;;;-0.16;100.00;100591.06;5076508;28;20203;-67
2024/01/06 10:54:04;;;;;;;9.73;6.63;;;;;;;-0.04;100.00;100589.91;5070062;28;20686;-68
2024/01/06 10:56:37;;;;;;;4.82;4.47;;;;;;;-0.12;100.00;100593.28;5074917;28;20581;-68
2024/01/06 10:59:08;;;;;;;7.70;5.68;;;;;;;-0.10;100.00;100577.19;5073939;28;20200;-66
2024/01/06 11:01:38;;;;;;;4.88;4.47;;;;;;;-0.16;100.00;100581.25;5064491;28;20184;-66
2024/01/06 11:12:21;;;;;;;4.25;3.97;;;;;;;-0.26;100.00;100595.53;5065351;28;20193;-67
2024/01/06 11:14:54;;;;;;;5.97;5.35;;;;;;;-0.21;100.00;100585.31;5074490;28;20191;-68
2024/01/06 11:17:53;;;;;;;5.57;4.53;;;;;;;-0.16;100.00;100591.06;5074769;28;20545;-67
2024/01/06 11:20:23;;;;;;;5.95;5.47;;;;;;;-0.16;100.00;100589.22;5065817;28;20188;-66
2024/01/06 11:22:52;;;;;;;5.68;2.83;;;;;;;-0.19;100.00;100591.31;5069431;28;20188;-65
2024/01/06 11:25:23;;;;;;;8.43;3.63;;;;;;;-0.18;100.00;100593.00;5074998;28;20240;-67
2024/01/06 11:27:57;;;;;;;3.80;3.33;;;;;;;-0.21;100.00;100598.59;5075143;28;20203;-65
2024/01/06 11:30:29;;;;;;;4.32;2.53;;;;;;;-0.24;100.00;100588.25;5079734;28;20546;-67
2024/01/06 11:33:00;;;;;;;11.30;6.90;;;;;;;-0.28;100.00;100592.16;5074084;28;20192;-67
2024/01/06 11:35:30;;;;;;;3.80;3.45;;;;;;;-0.34;100.00;100598.06;5071380;28;20208;-67
2024/01/06 11:38:03;;;;;;;5.40;3.58;;;;;;;-0.39;100.00;100601.13;5064651;28;20207;-67
2024/01/06 11:40:34;;;;;;;3.92;3.50;;;;;;;-0.27;100.00;100604.47;5075365;28;20206;-67